Time;durP1;ratioP1;P1;durP2;ratioP2;P2;SDS_P1;SDS_P2;PMS_P1;PMS_P2;Temp;Humidity;BMP_temperature;BMP_pressure;BME280_temperature;BME280_humidity;BME280_pressure;Samples;Min_cycle;Max_cycle;Signal;HPM_P1;HPM_P2
2022/12/31 00:01:56;;;;;;;0.70;0.50;;;11.60;99.90;;;;;;5050065;28;20516;-76
2022/12/31 00:04:24;;;;;;;1.00;0.70;;;;;;;;;;5034518;28;20458;-76
2022/12/31 00:06:51;;;;;;;0.60;0.30;;;;;;;;;;5032136;28;20463;-77
2022/12/31 00:09:18;;;;;;;1.73;0.50;;;;;;;;;;5042543;28;20465;-76
2022/12/31 00:11:45;;;;;;;0.73;0.50;;;;;;;;;;5052533;28;20453;-80
2022/12/31 00:14:12;;;;;;;0.87;0.50;;;;;;;;;;5051519;28;20513;-76
2022/12/31 00:16:41;;;;;;;0.60;0.40;;;11.70;99.90;;;;;;5051289;28;20447;-77
2022/12/31 00:19:12;;;;;;;0.40;0.30;;;11.70;99.90;;;;;;5045520;28;20474;-78
2022/12/31 00:21:40;;;;;;;0.60;0.43;;;;;;;;;;5032594;28;20458;-77
2022/12/31 00:24:07;;;;;;;1.67;0.60;;;11.90;99.90;;;;;;5032653;28;20448;-76
2022/12/31 00:26:35;;;;;;;0.50;0.40;;;11.90;99.90;;;;;;5049718;28;20467;-78
2022/12/31 00:29:03;;;;;;;0.50;0.30;;;;;;;;;;5045491;28;20492;-75
2022/12/31 00:31:31;;;;;;;0.80;0.60;;;11.90;99.90;;;;;;5040867;28;20466;-76
2022/12/31 00:33:58;;;;;;;0.70;0.50;;;;;;;;;;5051309;28;20502;-78
2022/12/31 00:36:29;;;;;;;1.57;0.57;;;12.00;99.90;;;;;;5034604;28;20475;-76
2022/12/31 00:38:57;;;;;;;7.10;0.70;;;12.10;99.90;;;;;;5032522;28;20443;-78
2022/12/31 00:41:25;;;;;;;1.07;0.70;;;12.20;99.90;;;;;;5031048;28;20825;-77
2022/12/31 00:43:52;;;;;;;0.60;0.60;;;;;;;;;;5032495;28;20546;-80
2022/12/31 00:46:20;;;;;;;3.23;0.83;;;;;;;;;;5032390;28;20942;-80
2022/12/31 00:48:47;;;;;;;0.90;0.70;;;;;;;;;;5031254;28;20431;-76
2022/12/31 00:51:16;;;;;;;42.47;23.47;;;12.30;99.90;;;;;;5032424;28;20459;-76
2022/12/31 00:53:45;;;;;;;1.43;0.80;;;12.40;99.90;;;;;;5035316;28;20490;-77
2022/12/31 00:56:14;;;;;;;3.43;2.33;;;12.50;99.90;;;;;;5050573;28;20457;-76
2022/12/31 00:58:41;;;;;;;2.00;0.50;;;;;;;;;;5049889;28;20486;-77
2022/12/31 01:01:09;;;;;;;4.80;1.40;;;12.50;99.90;;;;;;5048845;28;20476;-76
2022/12/31 01:03:36;;;;;;;0.60;0.50;;;;;;;;;;5039374;28;20454;-76
2022/12/31 01:06:03;;;;;;;0.80;0.60;;;;;;;;;;5047244;28;20466;-76
2022/12/31 01:08:30;;;;;;;0.70;0.57;;;;;;;;;;5035817;28;20455;-81
2022/12/31 01:13:44;;;;;;;0.93;0.70;;;;;;;;;;5053626;28;20616;-75
2022/12/31 01:16:13;;;;;;;1.10;0.60;;;12.90;99.90;;;;;;5055605;28;20462;-75
2022/12/31 01:18:40;;;;;;;4.87;3.20;;;;;;;;;;5054353;28;20449;-77
2022/12/31 01:21:10;;;;;;;0.97;0.60;;;12.80;99.90;;;;;;5049362;28;20463;-79
2022/12/31 01:23:37;;;;;;;1.20;0.80;;;;;;;;;;5035284;28;20463;-75
2022/12/31 01:26:07;;;;;;;0.80;0.57;;;13.00;99.90;;;;;;5035463;28;20452;-76
2022/12/31 01:28:35;;;;;;;1.10;0.73;;;13.00;99.90;;;;;;5050641;28;20493;-76
2022/12/31 01:31:04;;;;;;;6.10;4.80;;;12.90;99.90;;;;;;5036401;28;20470;-75
2022/12/31 01:33:31;;;;;;;0.97;0.50;;;;;;;;;;5033769;28;20493;-80
2022/12/31 01:36:02;;;;;;;1.00;0.70;;;13.00;99.90;;;;;;5042687;28;20473;-75
2022/12/31 01:38:29;;;;;;;1.63;1.27;;;;;;;;;;5054284;28;20470;-76
2022/12/31 01:40:56;;;;;;;3.10;2.80;;;;;;;;;;5055162;28;20435;-76
2022/12/31 01:43:39;;;;;;;3.40;3.10;;;12.90;99.90;;;;;;5054135;28;20465;-75
2022/12/31 01:46:07;;;;;;;0.80;0.40;;;13.10;99.90;;;;;;5038756;28;20463;-77
2022/12/31 01:48:35;;;;;;;0.83;0.80;;;;;;;;;;5052180;28;20474;-75
2022/12/31 01:51:02;;;;;;;0.43;0.30;;;;;;;;;;5053072;28;20458;-76
2022/12/31 01:53:30;;;;;;;0.60;0.50;;;13.20;99.90;;;;;;5046537;28;20483;-79
2022/12/31 01:55:59;;;;;;;1.13;1.03;;;13.10;99.90;;;;;;5034898;28;20448;-76
2022/12/31 01:58:30;;;;;;;1.73;0.70;;;13.10;99.90;;;;;;5034782;28;20822;-76
2022/12/31 02:00:58;;;;;;;1.10;0.43;;;13.20;99.90;;;;;;5037992;28;20478;-77
2022/12/31 02:03:26;;;;;;;0.80;0.70;;;13.10;99.90;;;;;;5033246;28;20458;-80
2022/12/31 02:05:58;;;;;;;2.30;0.50;;;13.10;99.90;;;;;;5050689;28;20470;-76
2022/12/31 02:08:25;;;;;;;1.13;0.60;;;;;;;;;;5048920;28;20475;-79
2022/12/31 02:10:52;;;;;;;1.80;0.50;;;;;;;;;;5042466;28;20466;-76
2022/12/31 02:13:20;;;;;;;0.60;0.53;;;;;;;;;;5054539;28;20811;-75
2022/12/31 02:15:58;;;;;;;1.00;0.53;;;13.00;99.90;;;;;;5036389;28;20467;-80
2022/12/31 02:18:30;;;;;;;0.60;0.33;;;13.10;99.90;;;;;;5033276;28;20447;-79
2022/12/31 02:21:30;;;;;;;0.50;0.43;;;13.10;99.90;;;;;;5034483;28;20958;-79
2022/12/31 02:24:30;;;;;;;0.83;0.53;;;13.10;99.90;;;;;;5033627;28;20463;-76
2022/12/31 02:27:03;;;;;;;0.90;0.50;;;13.10;99.90;;;;;;5033855;28;20487;-79
2022/12/31 02:30:15;;;;;;;0.60;0.60;;;13.20;99.90;;;;;;5047751;28;20467;-77
2022/12/31 02:32:54;;;;;;;1.13;0.63;;;13.10;99.90;;;;;;5048229;28;20460;-76
2022/12/31 02:35:28;;;;;;;0.60;0.40;;;13.10;99.90;;;;;;5033608;28;20498;-76
2022/12/31 02:38:01;;;;;;;0.90;0.67;;;13.30;99.90;;;;;;5047030;28;20471;-76
2022/12/31 02:40:28;;;;;;;0.90;0.70;;;;;;;;;;5051827;28;20520;-75
2022/12/31 02:42:55;;;;;;;1.77;0.80;;;;;;;;;;5052063;28;20446;-77
2022/12/31 02:45:29;;;;;;;1.30;0.53;;;13.30;99.90;;;;;;5048538;28;20482;-80
2022/12/31 02:48:11;;;;;;;1.37;0.70;;;13.30;99.90;;;;;;5036080;28;20838;-77
2022/12/31 02:50:54;;;;;;;1.50;0.53;;;13.30;99.90;;;;;;5049027;28;20450;-77
2022/12/31 02:53:50;;;;;;;0.70;0.50;;;13.40;99.90;;;;;;5050234;28;20439;-79
2022/12/31 02:56:24;;;;;;;2.10;0.40;;;13.50;99.90;;;;;;5053588;28;20439;-76
2022/12/31 03:04:36;;;;;;;5.00;0.50;;;;;;;;;;5053510;28;20469;-76
2022/12/31 03:07:06;;;;;;;1.37;0.50;;;13.60;99.90;;;;;;5036643;28;20435;-77
2022/12/31 03:09:33;;;;;;;0.90;0.60;;;;;;;;;;5033919;28;20443;-75
2022/12/31 03:14:46;;;;;;;1.17;0.57;;;;;;;;;;5051953;28;20489;-76
2022/12/31 03:17:13;;;;;;;0.90;0.53;;;;;;;;;;5048149;28;20478;-75
2022/12/31 03:22:29;;;;;;;0.70;0.50;;;;;;;;;;5035087;28;20469;-80
2022/12/31 03:27:47;;;;;;;1.73;0.80;;;13.90;99.90;;;;;;5053120;28;20509;-79
2022/12/31 03:30:16;;;;;;;3.13;0.80;;;13.90;99.90;;;;;;5052199;28;20462;-77
2022/12/31 03:32:44;;;;;;;1.43;0.40;;;13.80;99.90;;;;;;5045973;28;20464;-76
2022/12/31 03:35:14;;;;;;;0.77;0.50;;;13.90;99.90;;;;;;5041103;28;20497;-77
2022/12/31 03:37:41;;;;;;;0.70;0.50;;;;;;;;;;5050073;28;20466;-81
2022/12/31 03:40:10;;;;;;;0.50;0.40;;;13.90;99.90;;;;;;5038172;28;20454;-82
2022/12/31 03:42:37;;;;;;;0.90;0.50;;;;;;;;;;5041434;28;20459;-75
2022/12/31 03:45:05;;;;;;;0.63;0.57;;;13.90;99.90;;;;;;5036118;28;20462;-77
2022/12/31 03:47:32;;;;;;;0.70;0.40;;;;;;;;;;5036386;28;20465;-76
2022/12/31 03:50:00;;;;;;;0.70;0.30;;;;;;;;;;5040154;28;20459;-75
2022/12/31 03:52:28;;;;;;;4.43;0.50;;;14.00;99.90;;;;;;5051776;28;20488;-77
2022/12/31 03:54:55;;;;;;;0.60;0.60;;;;;;;;;;5052800;28;20501;-77
2022/12/31 03:57:22;;;;;;;0.40;0.20;;;;;;;;;;5050404;28;20450;-76
2022/12/31 03:59:49;;;;;;;3.03;0.57;;;;;;;;;;5035250;28;20470;-80
2022/12/31 04:02:16;;;;;;;2.93;0.73;;;;;;;;;;5031200;28;20447;-76
2022/12/31 04:04:43;;;;;;;0.87;0.50;;;;;;;;;;5036684;28;21080;-75
2022/12/31 04:07:10;;;;;;;1.00;0.47;;;;;;;;;;5044134;28;20850;-76
2022/12/31 04:09:39;;;;;;;0.50;0.37;;;;;;;;;;5037610;28;20954;-81
2022/12/31 04:12:06;;;;;;;1.27;0.50;;;;;;;;;;5032303;28;20466;-78
2022/12/31 04:14:33;;;;;;;0.73;0.50;;;;;;;;;;5032572;28;20483;-76
2022/12/31 04:17:01;;;;;;;0.53;0.50;;;;;;;;;;5037981;28;20879;-76
2022/12/31 04:19:28;;;;;;;0.40;0.30;;;;;;;;;;5040037;28;20463;-76
2022/12/31 04:21:55;;;;;;;0.60;0.50;;;;;;;;;;5034869;28;20455;-75
2022/12/31 04:24:22;;;;;;;1.53;0.50;;;;;;;;;;5032619;28;20449;-77
2022/12/31 04:26:50;;;;;;;1.57;0.73;;;14.40;99.90;;;;;;5033417;28;20483;-76
2022/12/31 04:29:18;;;;;;;0.80;0.57;;;14.40;99.90;;;;;;5041571;28;20473;-78
2022/12/31 04:31:45;;;;;;;1.77;0.30;;;;;;;;;;5042328;28;20473;-76
2022/12/31 04:34:12;;;;;;;0.50;0.33;;;;;;;;;;5055402;28;20469;-76
2022/12/31 04:36:39;;;;;;;0.60;0.50;;;;;;;;;;5048383;28;20550;-77
2022/12/31 04:39:06;;;;;;;1.30;0.53;;;;;;;;;;5046442;28;20467;-76
2022/12/31 04:41:33;;;;;;;1.07;0.50;;;;;;;;;;5035913;28;20467;-76
2022/12/31 04:44:02;;;;;;;0.50;0.40;;;14.20;99.90;;;;;;5042974;28;20466;-77
2022/12/31 04:46:30;;;;;;;1.83;0.67;;;14.30;99.90;;;;;;5055843;28;20533;-76
2022/12/31 04:48:57;;;;;;;0.40;0.30;;;;;;;;;;5041205;28;20468;-76
2022/12/31 04:51:24;;;;;;;0.60;0.43;;;;;;;;;;5043453;28;20465;-76
2022/12/31 04:53:51;;;;;;;0.60;0.30;;;;;;;;;;5041395;28;20462;-76
2022/12/31 04:56:19;;;;;;;0.60;0.40;;;;;;;;;;5036006;28;20483;-78
2022/12/31 04:58:46;;;;;;;3.97;0.43;;;;;;;;;;5035461;28;20482;-80
2022/12/31 05:01:14;;;;;;;0.53;0.50;;;14.10;99.90;;;;;;5035947;28;20447;-76
2022/12/31 05:03:41;;;;;;;0.53;0.30;;;;;;;;;;5037997;28;20474;-76
2022/12/31 05:06:11;;;;;;;1.13;0.70;;;14.00;99.90;;;;;;5036942;28;20843;-77
2022/12/31 05:08:38;;;;;;;1.47;0.53;;;;;;;;;;5037602;28;20459;-77
2022/12/31 05:11:05;;;;;;;0.80;0.40;;;;;;;;;;5035633;28;20467;-79
2022/12/31 05:13:32;;;;;;;0.50;0.33;;;;;;;;;;5037086;28;20574;-78
2022/12/31 05:15:59;;;;;;;0.50;0.30;;;;;;;;;;5035724;28;20505;-81
2022/12/31 05:18:28;;;;;;;0.70;0.60;;;14.00;99.90;;;;;;5034096;28;20463;-79
2022/12/31 05:20:55;;;;;;;0.57;0.47;;;;;;;;;;5036807;28;20880;-80
2022/12/31 05:23:22;;;;;;;0.60;0.40;;;;;;;;;;5047576;28;20473;-75
2022/12/31 05:25:49;;;;;;;0.70;0.50;;;;;;;;;;5054365;28;20486;-76
2022/12/31 05:28:17;;;;;;;0.80;0.80;;;;;;;;;;5055120;28;20442;-78
2022/12/31 05:30:44;;;;;;;0.50;0.30;;;;;;;;;;5044480;28;20950;-75
2022/12/31 05:33:12;;;;;;;1.33;0.60;;;;;;;;;;5034254;28;20447;-75
2022/12/31 05:35:40;;;;;;;0.87;0.47;;;13.90;99.90;;;;;;5035341;28;20494;-77
2022/12/31 05:38:07;;;;;;;0.50;0.40;;;;;;;;;;5047269;28;20486;-76
2022/12/31 05:40:34;;;;;;;1.53;0.70;;;;;;;;;;5045326;28;20470;-76
2022/12/31 05:43:01;;;;;;;1.47;0.60;;;;;;;;;;5039866;28;20471;-75
2022/12/31 05:45:28;;;;;;;0.50;0.40;;;;;;;;;;5035170;28;20460;-75
2022/12/31 05:47:55;;;;;;;0.77;0.60;;;;;;;;;;5033339;28;20478;-75
2022/12/31 05:50:22;;;;;;;1.47;0.60;;;;;;;;;;5045920;28;20474;-78
2022/12/31 05:52:50;;;;;;;0.80;0.60;;;13.90;99.90;;;;;;5051934;28;20492;-78
2022/12/31 05:55:17;;;;;;;0.63;0.53;;;;;;;;;;5047162;28;20486;-77
2022/12/31 05:57:44;;;;;;;1.57;0.80;;;;;;;;;;5041409;28;20495;-79
2022/12/31 06:00:12;;;;;;;1.50;0.43;;;13.80;99.90;;;;;;5034346;28;20464;-75
2022/12/31 06:02:39;;;;;;;1.73;0.60;;;;;;;;;;5040792;28;20469;-75
2022/12/31 06:05:06;;;;;;;1.60;0.63;;;;;;;;;;5038117;28;20522;-80
2022/12/31 06:07:34;;;;;;;3.40;0.60;;;;;;;;;;5037807;28;20458;-76
2022/12/31 06:10:02;;;;;;;1.60;0.43;;;13.60;99.90;;;;;;5038978;28;20471;-75
2022/12/31 06:12:29;;;;;;;0.50;0.47;;;;;;;;;;5034565;28;20801;-76
2022/12/31 06:14:56;;;;;;;1.87;0.60;;;;;;;;;;5034444;28;20487;-76
2022/12/31 06:17:23;;;;;;;0.60;0.43;;;;;;;;;;5040840;28;20459;-77
2022/12/31 06:19:50;;;;;;;1.00;0.40;;;;;;;;;;5050243;28;20935;-75
2022/12/31 06:22:17;;;;;;;0.50;0.40;;;;;;;;;;5034456;28;20510;-74
2022/12/31 06:24:44;;;;;;;0.70;0.60;;;;;;;;;;5034319;28;20448;-74
2022/12/31 06:27:12;;;;;;;1.40;0.43;;;13.50;99.90;;;;;;5034261;28;20997;-75
2022/12/31 06:29:40;;;;;;;0.50;0.30;;;;;;;;;;5034447;28;20796;-79
2022/12/31 06:32:07;;;;;;;1.23;0.60;;;;;;;;;;5032950;28;20439;-75
2022/12/31 06:34:34;;;;;;;1.03;0.50;;;;;;;;;;5034344;28;20493;-75
2022/12/31 06:37:01;;;;;;;1.80;0.50;;;;;;;;;;5045758;28;20454;-75
2022/12/31 06:39:28;;;;;;;0.47;0.43;;;;;;;;;;5053767;28;20438;-74
2022/12/31 06:41:55;;;;;;;0.70;0.50;;;;;;;;;;5054078;28;20463;-74
2022/12/31 06:44:23;;;;;;;1.43;0.50;;;13.50;99.90;;;;;;5041312;28;20475;-75
2022/12/31 06:46:50;;;;;;;4.20;0.70;;;;;;;;;;5032768;28;20809;-74
2022/12/31 06:49:18;;;;;;;0.97;0.60;;;;;;;;;;5033538;28;20456;-75
2022/12/31 06:51:46;;;;;;;1.73;0.50;;;;;;;;;;5032857;28;20751;-75
2022/12/31 06:54:13;;;;;;;1.47;1.00;;;;;;;;;;5052846;28;20913;-75
2022/12/31 06:56:41;;;;;;;0.63;0.47;;;;;;;;;;5038239;28;20502;-79
2022/12/31 06:59:22;;;;;;;2.50;0.60;;;13.30;99.90;;;;;;5033440;28;20837;-76
2022/12/31 07:02:04;;;;;;;0.90;0.50;;;13.20;99.90;;;;;;5032392;28;21338;-75
2022/12/31 07:04:57;;;;;;;6.73;0.77;;;13.20;99.90;;;;;;5033438;28;20440;-75
2022/12/31 07:07:29;;;;;;;1.10;0.50;;;13.30;99.90;;;;;;5028002;28;20464;-77
2022/12/31 07:10:03;;;;;;;0.67;0.47;;;13.20;99.90;;;;;;5053355;28;20458;-77
2022/12/31 07:12:40;;;;;;;0.50;0.50;;;13.30;99.90;;;;;;5053170;28;20450;-77
2022/12/31 07:15:14;;;;;;;0.70;0.40;;;13.30;99.90;;;;;;5036956;28;20490;-78
2022/12/31 07:17:52;;;;;;;0.63;0.60;;;13.40;99.90;;;;;;5032118;28;20448;-77
2022/12/31 07:20:20;;;;;;;0.80;0.67;;;13.40;99.90;;;;;;5033124;28;20965;-77
2022/12/31 07:22:49;;;;;;;1.10;0.60;;;13.50;99.90;;;;;;5033259;28;20446;-78
2022/12/31 07:25:16;;;;;;;0.50;0.40;;;;;;;;;;5033647;28;20478;-77
2022/12/31 07:27:53;;;;;;;0.60;0.40;;;13.70;99.90;;;;;;5033044;28;20501;-77
2022/12/31 07:30:22;;;;;;;0.50;0.40;;;13.60;99.90;;;;;;5033160;28;20455;-76
2022/12/31 07:33:09;;;;;;;1.13;0.50;;;13.70;99.90;;;;;;5031885;28;20502;-76
2022/12/31 07:35:46;;;;;;;1.00;0.47;;;13.50;99.90;;;;;;5033014;28;20502;-76
2022/12/31 07:38:20;;;;;;;0.60;0.40;;;13.70;99.90;;;;;;5032967;28;20521;-77
2022/12/31 07:40:56;;;;;;;1.70;0.50;;;13.80;99.90;;;;;;5033007;28;20455;-76
2022/12/31 07:43:32;;;;;;;1.37;0.50;;;13.80;99.90;;;;;;5033473;28;20458;-77
2022/12/31 07:46:08;;;;;;;0.73;0.43;;;13.90;99.90;;;;;;5032815;28;20457;-77
2022/12/31 07:48:37;;;;;;;0.50;0.30;;;14.30;99.90;;;;;;5031656;28;20439;-78
2022/12/31 07:51:05;;;;;;;0.60;0.40;;;;;;;;;;5043848;28;20447;-78
2022/12/31 07:53:32;;;;;;;1.07;0.50;;;;;;;;;;5052483;28;20450;-77
2022/12/31 07:56:04;;;;;;;2.17;0.40;;;14.00;99.90;;;;;;5052636;28;20490;-77
2022/12/31 07:58:47;;;;;;;0.97;0.60;;;14.10;99.90;;;;;;5051923;28;20962;-78
2022/12/31 08:01:22;;;;;;;0.63;0.40;;;14.10;99.90;;;;;;5032439;28;20969;-77
2022/12/31 08:03:56;;;;;;;0.80;0.67;;;14.10;99.90;;;;;;5031546;28;20466;-77
2022/12/31 08:06:33;;;;;;;0.70;0.50;;;14.10;99.90;;;;;;5032650;28;20447;-77
2022/12/31 08:09:07;;;;;;;0.80;0.50;;;14.10;99.90;;;;;;5032734;28;20443;-77
2022/12/31 08:11:41;;;;;;;2.93;0.70;;;14.20;99.90;;;;;;5032641;28;20447;-77
2022/12/31 08:14:11;;;;;;;0.90;0.50;;;14.30;99.90;;;;;;5032674;28;20472;-76
2022/12/31 08:16:39;;;;;;;0.80;0.50;;;;;;;;;;5031805;28;20483;-77
2022/12/31 08:19:10;;;;;;;0.67;0.50;;;14.10;99.90;;;;;;5032597;28;20455;-77
2022/12/31 08:21:47;;;;;;;1.80;0.57;;;14.20;99.90;;;;;;5032402;28;20454;-76
2022/12/31 08:24:21;;;;;;;0.70;0.40;;;14.20;99.90;;;;;;5032399;28;20819;-77
2022/12/31 08:27:00;;;;;;;0.60;0.50;;;14.30;99.90;;;;;;5032375;28;20839;-76
2022/12/31 08:29:35;;;;;;;0.83;0.50;;;14.60;99.90;;;;;;5033330;28;20467;-78
2022/12/31 08:32:11;;;;;;;1.33;0.50;;;14.70;99.90;;;;;;5031258;28;20922;-74
2022/12/31 08:34:47;;;;;;;0.50;0.37;;;14.80;99.90;;;;;;5037102;28;20463;-77
2022/12/31 08:37:23;;;;;;;7.33;5.90;;;15.10;99.90;;;;;;5033299;28;20517;-79
2022/12/31 08:40:03;;;;;;;1.63;0.60;;;15.00;99.90;;;;;;5033919;28;20450;-75
2022/12/31 08:42:36;;;;;;;1.73;0.53;;;14.80;99.90;;;;;;5031689;28;20954;-80
2022/12/31 08:45:12;;;;;;;0.80;0.60;;;14.70;99.90;;;;;;5032103;28;20471;-75
2022/12/31 08:47:45;;;;;;;0.90;0.50;;;14.60;99.90;;;;;;5030938;28;20442;-80
2022/12/31 08:50:18;;;;;;;3.27;0.70;;;14.60;99.90;;;;;;5032236;28;20463;-80
2022/12/31 08:52:45;;;;;;;0.90;0.70;;;;;;;;;;5043142;28;20444;-74
2022/12/31 08:55:15;;;;;;;2.70;0.50;;;14.60;99.90;;;;;;5041840;28;20814;-74
2022/12/31 08:57:50;;;;;;;0.87;0.60;;;15.10;99.90;;;;;;5034867;28;20557;-74
2022/12/31 09:00:20;;;;;;;0.60;0.50;;;14.60;99.90;;;;;;5034468;28;20471;-75
2022/12/31 09:03:11;;;;;;;0.70;0.50;;;14.70;99.90;;;;;;5042090;28;20465;-75
2022/12/31 09:05:53;;;;;;;2.10;0.60;;;14.80;99.90;;;;;;5051903;28;20470;-76
2022/12/31 09:08:29;;;;;;;0.50;0.40;;;14.80;99.90;;;;;;5048910;28;20450;-79
2022/12/31 09:11:03;;;;;;;1.10;0.60;;;14.80;99.90;;;;;;5051347;28;20465;-75
2022/12/31 09:13:39;;;;;;;1.03;0.77;;;15.00;99.90;;;;;;5036314;28;20952;-76
2022/12/31 09:16:18;;;;;;;0.70;0.50;;;15.40;99.90;;;;;;5053081;28;20497;-78
2022/12/31 09:18:45;;;;;;;0.60;0.40;;;;;;;;;;5038124;28;20465;-75
2022/12/31 09:21:15;;;;;;;1.00;0.47;;;15.90;99.90;;;;;;5047016;28;20454;-75
2022/12/31 09:23:42;;;;;;;1.03;0.57;;;;;;;;;;5053474;28;20446;-75
2022/12/31 09:26:20;;;;;;;0.57;0.47;;;16.20;99.90;;;;;;5038189;28;20467;-76
2022/12/31 09:28:53;;;;;;;1.07;0.47;;;16.60;99.90;;;;;;5040909;28;20459;-75
2022/12/31 09:31:30;;;;;;;1.10;0.70;;;16.80;99.90;;;;;;5055381;28;20447;-74
2022/12/31 09:34:06;;;;;;;0.90;0.70;;;16.90;99.90;;;;;;5054551;28;20549;-79
2022/12/31 09:36:39;;;;;;;1.30;1.20;;;17.10;99.90;;;;;;5055265;28;20512;-77
2022/12/31 09:39:12;;;;;;;0.60;0.43;;;16.90;99.90;;;;;;5040061;28;20482;-76
2022/12/31 09:42:10;;;;;;;0.97;0.53;;;17.00;99.90;;;;;;5055101;28;20451;-79
2022/12/31 09:45:24;;;;;;;0.70;0.40;;;17.20;99.40;;;;;;5055162;28;20461;-77
2022/12/31 09:48:21;;;;;;;2.20;0.80;;;17.60;99.90;;;;;;5053923;28;20458;-79
2022/12/31 09:50:59;;;;;;;0.80;0.70;;;17.10;99.90;;;;;;5055004;28;20449;-76
2022/12/31 09:53:57;;;;;;;2.33;1.57;;;17.20;99.90;;;;;;5040678;28;20473;-77
2022/12/31 09:56:28;;;;;;;1.47;0.70;;;17.20;99.90;;;;;;5037994;28;20483;-77
2022/12/31 09:59:03;;;;;;;1.10;0.60;;;17.40;99.90;;;;;;5044934;28;20479;-78
2022/12/31 10:01:42;;;;;;;1.10;0.77;;;17.10;99.90;;;;;;5035078;28;20451;-78
2022/12/31 10:04:47;;;;;;;1.33;0.60;;;17.60;99.90;;;;;;5050488;28;20466;-77
2022/12/31 10:07:41;;;;;;;1.27;0.47;;;17.40;99.90;;;;;;5034549;28;20811;-79
2022/12/31 10:10:16;;;;;;;2.20;0.60;;;17.40;99.90;;;;;;5034587;28;20440;-77
2022/12/31 10:13:00;;;;;;;1.37;0.70;;;17.60;99.10;;;;;;5034449;28;20435;-78
2022/12/31 10:15:54;;;;;;;0.80;0.40;;;17.50;98.80;;;;;;5034800;28;20455;-79
2022/12/31 10:18:32;;;;;;;0.60;0.43;;;17.40;99.20;;;;;;5041975;28;20466;-76
2022/12/31 10:21:18;;;;;;;2.67;0.90;;;17.30;99.50;;;;;;5041188;28;20451;-77
2022/12/31 10:24:04;;;;;;;0.87;0.70;;;17.50;99.90;;;;;;5033934;28;20558;-78
2022/12/31 10:26:51;;;;;;;1.07;0.60;;;17.50;97.30;;;;;;5034801;28;20443;-77
2022/12/31 10:29:32;;;;;;;0.60;0.50;;;17.40;97.70;;;;;;5033407;28;20459;-76
2022/12/31 10:32:15;;;;;;;1.47;0.67;;;17.50;96.70;;;;;;5033506;28;20494;-73
2022/12/31 10:34:55;;;;;;;0.90;0.70;;;17.90;96.90;;;;;;5035438;28;20443;-74
2022/12/31 10:37:27;;;;;;;0.50;0.40;;;17.60;99.20;;;;;;5034450;28;20478;-75
2022/12/31 10:40:04;;;;;;;0.57;0.43;;;18.00;99.90;;;;;;5034181;28;20458;-79
2022/12/31 10:43:10;;;;;;;1.00;0.63;;;17.80;99.80;;;;;;5014898;28;20804;-78
2022/12/31 10:46:25;;;;;;;2.63;0.73;;;18.20;99.90;;;;;;5050926;28;20457;-76
2022/12/31 10:49:16;;;;;;;0.50;0.40;;;;;;;;;;5035627;28;20455;-76
2022/12/31 10:52:22;;;;;;;0.53;0.40;;;18.00;99.90;;;;;;5050420;28;20450;-76
2022/12/31 10:55:28;;;;;;;3.57;2.23;;;18.00;99.90;;;;;;5004234;28;20822;-75
2022/12/31 10:58:27;;;;;;;1.50;1.00;;;18.30;97.50;;;;;;5048729;28;20510;-77
2022/12/31 11:01:03;;;;;;;1.80;1.20;;;18.40;99.90;;;;;;5042082;28;20463;-76
2022/12/31 11:04:08;;;;;;;1.33;0.80;;;18.20;99.90;;;;;;5038001;28;20467;-74
2022/12/31 11:07:19;;;;;;;1.23;1.03;;;18.20;97.70;;;;;;5034341;28;20462;-74
2022/12/31 11:10:19;;;;;;;0.70;0.60;;;18.20;97.20;;;;;;5033390;28;20443;-76
2022/12/31 11:13:17;;;;;;;0.70;0.50;;;18.60;93.50;;;;;;5047836;28;20443;-76
2022/12/31 11:16:12;;;;;;;1.37;1.10;;;18.40;94.20;;;;;;5030158;28;20448;-79
2022/12/31 11:18:52;;;;;;;0.77;0.40;;;18.50;97.40;;;;;;5031597;28;20466;-78
2022/12/31 11:21:40;;;;;;;2.90;1.50;;;18.50;94.20;;;;;;5033216;28;20966;-75
2022/12/31 11:24:21;;;;;;;0.80;0.50;;;18.40;97.20;;;;;;5034098;28;20486;-75
2022/12/31 11:26:59;;;;;;;2.60;0.90;;;18.50;96.90;;;;;;5032896;28;20458;-78
2022/12/31 11:29:40;;;;;;;0.80;0.60;;;18.70;94.00;;;;;;5032751;28;20459;-74
2022/12/31 11:32:22;;;;;;;1.17;1.07;;;19.10;97.40;;;;;;5031945;28;20460;-76
2022/12/31 11:35:16;;;;;;;1.03;0.70;;;18.70;93.60;;;;;;5033047;28;20454;-75
2022/12/31 11:37:47;;;;;;;0.53;0.40;;;19.00;96.40;;;;;;5041587;28;20498;-77
2022/12/31 11:40:32;;;;;;;3.33;0.40;;;18.90;92.80;;;;;;5053002;28;20450;-78
2022/12/31 11:43:02;;;;;;;1.10;0.60;;;18.80;95.80;;;;;;5052532;28;20445;-77
2022/12/31 11:45:54;;;;;;;1.23;0.60;;;18.90;92.80;;;;;;5041123;28;20455;-79
2022/12/31 11:48:28;;;;;;;1.30;0.70;;;19.50;95.40;;;;;;5047322;28;20466;-75
2022/12/31 11:51:08;;;;;;;1.30;0.80;;;19.40;95.60;;;;;;5050776;28;20453;-76
2022/12/31 11:53:56;;;;;;;1.33;0.60;;;19.00;92.30;;;;;;5052394;28;20458;-79
2022/12/31 11:56:27;;;;;;;0.60;0.50;;;18.80;95.80;;;;;;5052685;28;20458;-80
2022/12/31 11:58:55;;;;;;;1.47;0.70;;;19.10;95.60;;;;;;5052518;28;20480;-75
2022/12/31 12:01:27;;;;;;;0.83;0.57;;;19.10;96.10;;;;;;5052394;28;20926;-76
2022/12/31 12:03:56;;;;;;;1.50;0.70;;;;;;;;;;5051372;28;20775;-76
2022/12/31 12:06:27;;;;;;;0.80;0.70;;;19.30;97.90;;;;;;5052533;28;20442;-77
2022/12/31 12:08:59;;;;;;;0.60;0.40;;;19.00;96.80;;;;;;5052591;28;20474;-75
2022/12/31 12:11:29;;;;;;;0.70;0.50;;;19.20;96.90;;;;;;5039664;28;20463;-77
2022/12/31 12:13:57;;;;;;;0.63;0.53;;;;;;;;;;5041223;28;20881;-75
2022/12/31 12:16:26;;;;;;;2.40;0.60;;;18.90;93.50;;;;;;5038526;28;20462;-75
2022/12/31 12:19:05;;;;;;;0.70;0.50;;;19.20;96.90;;;;;;5038068;28;20491;-78
2022/12/31 12:21:33;;;;;;;0.60;0.40;;;19.30;95.30;;;;;;5040240;28;20462;-77
2022/12/31 12:24:02;;;;;;;0.50;0.40;;;19.40;96.60;;;;;;5052481;28;20485;-75
2022/12/31 12:26:35;;;;;;;1.30;0.47;;;19.20;92.60;;;;;;5039470;28;20463;-77
2022/12/31 12:29:09;;;;;;;2.53;0.73;;;18.90;95.50;;;;;;5035522;28;20824;-77
2022/12/31 12:31:36;;;;;;;0.70;0.50;;;;;;;;;;5041727;28;20457;-77
2022/12/31 12:34:06;;;;;;;0.67;0.53;;;18.80;95.30;;;;;;5040983;28;20453;-77
2022/12/31 12:36:33;;;;;;;0.50;0.40;;;18.90;91.40;;;;;;5033974;28;20450;-76
2022/12/31 12:39:01;;;;;;;1.00;0.47;;;;;;;;;;5034252;28;20463;-76
2022/12/31 12:41:28;;;;;;;0.97;0.40;;;;;;;;;;5037460;28;20464;-76
2022/12/31 12:44:03;;;;;;;1.80;0.80;;;18.90;94.70;;;;;;5044212;28;20460;-77
2022/12/31 12:46:34;;;;;;;0.50;0.33;;;;;;;;;;5032362;28;20462;-76
2022/12/31 12:49:02;;;;;;;1.93;0.60;;;;;;;;;;5040939;28;20446;-75
2022/12/31 12:51:45;;;;;;;0.60;0.50;;;19.30;90.30;;;;;;5045653;28;20434;-76
2022/12/31 12:54:25;;;;;;;0.57;0.47;;;19.20;94.00;;;;;;5046132;28;20450;-77
2022/12/31 12:56:59;;;;;;;0.90;0.40;;;18.80;93.90;;;;;;5040927;28;20487;-77
2022/12/31 13:00:00;;;;;;;0.67;0.40;;;18.70;90.40;;;;;;5055856;28;20477;-77
2022/12/31 13:02:49;;;;;;;0.40;0.30;;;18.70;89.60;;;;;;5001396;28;20479;-79
2022/12/31 13:05:30;;;;;;;0.50;0.30;;;18.60;92.10;;;;;;5036434;28;20466;-78
2022/12/31 13:08:05;;;;;;;0.50;0.40;;;18.70;93.10;;;;;;5039437;28;20927;-77
2022/12/31 13:10:55;;;;;;;0.53;0.40;;;18.50;90.20;;;;;;5043746;28;20443;-77
2022/12/31 13:13:32;;;;;;;0.60;0.40;;;18.40;93.10;;;;;;5035314;28;21008;-78
2022/12/31 13:16:05;;;;;;;0.50;0.30;;;18.40;92.50;;;;;;5038787;28;20463;-76
2022/12/31 13:18:45;;;;;;;1.37;0.50;;;18.40;91.60;;;;;;5041679;28;20539;-77
2022/12/31 13:21:41;;;;;;;0.60;0.40;;;18.40;92.30;;;;;;5040313;28;20470;-79
2022/12/31 13:24:22;;;;;;;0.50;0.30;;;18.30;92.40;;;;;;5036362;28;20533;-78
2022/12/31 13:26:57;;;;;;;1.43;0.30;;;18.30;92.50;;;;;;5035601;28;20443;-79
2022/12/31 13:29:28;;;;;;;0.50;0.30;;;18.30;93.80;;;;;;5041454;28;20443;-80
2022/12/31 13:31:56;;;;;;;0.70;0.50;;;18.20;93.30;;;;;;5043319;28;20438;-79
2022/12/31 13:34:28;;;;;;;1.33;0.40;;;18.20;93.20;;;;;;5044111;28;20436;-79
2022/12/31 13:36:58;;;;;;;0.87;0.40;;;17.80;92.80;;;;;;5049535;28;20443;-78
2022/12/31 13:39:29;;;;;;;0.93;0.40;;;18.10;94.80;;;;;;5055097;28;20472;-79
2022/12/31 13:42:02;;;;;;;0.90;0.43;;;18.10;94.10;;;;;;5036477;28;20442;-79
2022/12/31 13:44:32;;;;;;;0.90;0.60;;;18.00;93.10;;;;;;5052964;28;20810;-78
2022/12/31 13:47:06;;;;;;;1.70;0.60;;;18.00;94.50;;;;;;5053998;28;20996;-78
2022/12/31 13:49:42;;;;;;;1.13;0.50;;;18.00;92.40;;;;;;5055091;28;20550;-78
2022/12/31 13:52:22;;;;;;;0.93;0.40;;;17.90;95.00;;;;;;5055012;28;20942;-78
2022/12/31 13:54:55;;;;;;;1.17;0.50;;;17.70;94.90;;;;;;5054999;28;20453;-78
2022/12/31 13:57:34;;;;;;;0.80;0.50;;;17.80;95.20;;;;;;5054686;28;20548;-77
2022/12/31 14:00:05;;;;;;;0.53;0.37;;;17.80;94.70;;;;;;5049738;28;20447;-80
2022/12/31 14:02:37;;;;;;;1.53;0.30;;;17.70;94.80;;;;;;5053688;28;20442;-80
2022/12/31 14:05:13;;;;;;;0.60;0.40;;;17.70;95.50;;;;;;5054713;28;20451;-80
2022/12/31 14:07:46;;;;;;;0.80;0.40;;;17.70;95.70;;;;;;5054758;28;20450;-79
2022/12/31 14:10:15;;;;;;;0.80;0.60;;;17.70;94.60;;;;;;5052379;28;20451;-75
2022/12/31 14:12:52;;;;;;;0.97;0.50;;;17.80;94.30;;;;;;5053784;28;20548;-77
2022/12/31 14:15:25;;;;;;;1.37;0.70;;;17.70;94.80;;;;;;5054189;28;20447;-75
2022/12/31 14:18:03;;;;;;;1.30;0.60;;;17.70;94.30;;;;;;5052598;28;20986;-78